Jack northrop Field Hawthorne Municipal Airport Hawthorne US
ICAO: KHHR
IATA: HHR
Category: Medium
Scheduled Services: No

Elevation: 66 ft
TransAlt. 18000 ft.

Airport Communications:
SOCAL APP:124.3
ATIS:118.4
CTAF:121.1
SOCAL DEP:124.3
GND:125.1
HAWTHORNE RDO:122.2
TWR:121.1

KHHR Zoom In..

Runways:

(A) RW 07 length 4956 ft width 100 ft
LOC 109.10 / hdg 73

(B) RW 25 length 4956 ft width 100 ft
LOC 109.10 / hdg 253

Location; KHHR
Day. 04 / Time. 01.53 Zulu
* Altimeter: 29.90
* Temperature: 22° c. 71.6°f.
* Wind from: 300° Speed 04 kn.
Dewpoint: 16° c.
Visibility: 10 Statute Miles.
Clouds: Clear (automated report).

KHHR 040153Z 30004KT 10SM CLR 22/16 A2990 RMK AO2 SLP124 T02170161

Going to: --> -->


Wind From 300°
Speed 04 kn.

 
 
jpsmedia worldairports.se 2020   terms of use